ESMT/HAD METAR and TAF weather

Enter ICAO airport designator
Station Type Date Time Source
ESMT METAR 2021/09/23 23:50 UTC NOAA

ESMT 232350Z AUTO 32012KT 9999 NCD 13/08 Q1001


Station Type Date Time Source
ESMT Decoded METAR 2021/09/23 23:50 UTC NOAA

Halmstad Swedish Air Force Base , Sweden (ESMT) 56-41N 012-50E
Sep 23, 2021 - 07:50 PM EDT / 2021.09.23 2350 UTC
Wind: from the NW (320 degrees) at 14 MPH (12 KT):0
Visibility: greater than 7 mile(s):0
Temperature: 55 F (13 C)
Dew Point: 46 F (8 C)
Relative Humidity: 71%
Pressure (altimeter): 29.56 in. Hg (1001 hPa)
ob: ESMT 232350Z AUTO 32012KT 9999 NCD 13/08 Q1001
cycle: 0

Station Type Date Time Source
ESMT TAF 2020/11/01 07:40 UTC NOAA

TAF
AMD ESMT 010733Z 0107/0121 16010KT 9999 BKN012
TEMPO 0107/0109 2800 RADZ BR BKN003
BECMG 0109/0112 SCT012

Example: see airport list